createdAt,value
2018-07-05T00:00:21.433Z,22.10
2018-07-05T00:03:01.855Z,22.10
2018-07-05T00:05:42.268Z,22.10
2018-07-05T00:08:22.773Z,22.10
2018-07-05T00:13:37.784Z,22.00
2018-07-05T00:16:18.100Z,21.90
2018-07-05T00:18:58.466Z,21.90
2018-07-05T00:21:38.800Z,21.90
2018-07-05T00:24:19.100Z,21.80
2018-07-05T00:26:59.581Z,21.80
2018-07-05T00:29:40.161Z,21.70
2018-07-05T00:32:20.504Z,21.70
2018-07-05T00:35:01.113Z,21.70
2018-07-05T00:37:41.477Z,21.60
2018-07-05T00:40:22.174Z,21.60
2018-07-05T00:45:36.987Z,21.50
2018-07-05T00:48:17.336Z,21.50
2018-07-05T00:50:57.693Z,21.40
2018-07-05T00:53:38.064Z,21.40
2018-07-05T00:56:18.593Z,21.40
2018-07-05T00:58:58.977Z,21.40
2018-07-05T01:01:39.564Z,21.40
2018-07-05T01:04:19.829Z,21.30
2018-07-05T01:07:00.050Z,21.30
2018-07-05T01:12:14.740Z,21.20
2018-07-05T01:14:55.156Z,21.20
2018-07-05T01:17:35.892Z,21.20
2018-07-05T01:20:16.133Z,21.20
2018-07-05T01:22:56.428Z,21.20
2018-07-05T01:25:36.830Z,21.20
2018-07-05T01:28:17.263Z,21.10
2018-07-05T01:30:57.648Z,21.10
2018-07-05T01:33:38.463Z,21.00
2018-07-05T01:36:19.288Z,21.00
2018-07-05T01:38:59.836Z,21.00
2018-07-05T01:41:40.197Z,20.90
2018-07-05T01:44:20.652Z,20.90
2018-07-05T01:47:01.041Z,20.90
2018-07-05T01:52:17.276Z,20.80
2018-07-05T01:54:57.748Z,20.80
2018-07-05T01:57:38.188Z,20.80
2018-07-05T02:00:18.537Z,20.80
2018-07-05T02:05:34.996Z,20.70
2018-07-05T02:08:15.473Z,20.70
2018-07-05T02:10:55.822Z,20.70
2018-07-05T02:13:36.260Z,20.60
2018-07-05T02:16:16.793Z,20.60
2018-07-05T02:18:57.187Z,20.60
2018-07-05T02:21:37.889Z,20.60
2018-07-05T02:24:18.216Z,20.50
2018-07-05T02:26:58.646Z,20.50
2018-07-05T02:29:39.049Z,20.50
2018-07-05T02:32:19.370Z,20.40
2018-07-05T02:34:59.778Z,20.40
2018-07-05T02:37:46.265Z,20.40
2018-07-05T02:40:26.728Z,20.30
2018-07-05T02:43:07.156Z,20.30
2018-07-05T02:45:47.831Z,20.30
2018-07-05T02:48:28.420Z,20.30
2018-07-05T02:51:08.896Z,20.30
2018-07-05T02:53:49.889Z,20.30
2018-07-05T02:56:30.291Z,20.20
2018-07-05T02:59:10.708Z,20.20
2018-07-05T03:01:51.118Z,20.20
2018-07-05T03:07:05.793Z,20.10
2018-07-05T03:09:46.307Z,20.10
2018-07-05T03:12:26.584Z,20.10
2018-07-05T03:15:06.881Z,20.00
2018-07-05T03:17:47.208Z,20.00
2018-07-05T03:20:27.690Z,20.00
2018-07-05T03:23:08.196Z,19.90
2018-07-05T03:25:48.957Z,19.90
2018-07-05T03:28:29.412Z,19.90
2018-07-05T03:31:09.933Z,19.90
2018-07-05T03:33:50.245Z,19.90
2018-07-05T03:36:30.560Z,19.80
2018-07-05T03:39:11.217Z,19.80
2018-07-05T03:41:52.113Z,19.80
2018-07-05T03:44:32.472Z,19.80
2018-07-05T03:47:13.081Z,19.80
2018-07-05T03:49:53.508Z,19.80
2018-07-05T03:52:33.829Z,19.80
2018-07-05T03:55:14.173Z,19.80
2018-07-05T03:57:55.005Z,19.80
2018-07-05T04:00:35.224Z,19.80
2018-07-05T04:03:15.700Z,19.80
2018-07-05T04:05:56.090Z,19.80
2018-07-05T04:08:36.540Z,19.80
2018-07-05T04:11:16.860Z,19.90
2018-07-05T04:13:57.273Z,19.90
2018-07-05T04:16:37.445Z,19.90
2018-07-05T04:19:17.865Z,19.90
2018-07-05T04:21:58.352Z,19.90
2018-07-05T04:24:38.838Z,19.90
2018-07-05T04:27:19.334Z,20.00
2018-07-05T04:30:00.122Z,20.00
2018-07-05T04:32:40.409Z,20.10
2018-07-05T04:35:20.909Z,20.20
2018-07-05T04:38:01.448Z,20.20
2018-07-05T04:40:42.205Z,20.20
2018-07-05T04:43:22.627Z,20.10
2018-07-05T04:46:03.485Z,20.10
2018-07-05T04:48:43.869Z,20.10
2018-07-05T04:51:24.183Z,20.10
2018-07-05T04:54:04.525Z,20.20
2018-07-05T04:56:44.997Z,20.20
2018-07-05T04:59:25.403Z,20.20
2018-07-05T05:02:05.913Z,20.20
2018-07-05T05:04:46.284Z,20.30
2018-07-05T05:07:26.618Z,20.30
2018-07-05T05:10:07.197Z,20.30
2018-07-05T05:12:47.565Z,20.40
2018-07-05T05:15:28.254Z,20.40
2018-07-05T05:18:09.001Z,20.40
2018-07-05T05:20:49.579Z,20.60
2018-07-05T05:23:30.093Z,20.60
2018-07-05T05:26:10.499Z,20.60
2018-07-05T05:28:50.853Z,20.60
2018-07-05T05:31:31.201Z,20.80
2018-07-05T05:34:11.977Z,20.80
2018-07-05T05:36:52.379Z,20.90
2018-07-05T05:39:32.745Z,21.00
2018-07-05T05:42:13.241Z,21.00
2018-07-05T05:44:53.680Z,21.00
2018-07-05T05:50:08.920Z,21.20
2018-07-05T05:52:49.220Z,21.30
2018-07-05T05:55:31.819Z,21.30
2018-07-05T05:58:12.325Z,21.40
2018-07-05T06:00:52.847Z,21.40
2018-07-05T06:03:33.190Z,21.50
2018-07-05T06:06:14.267Z,21.60
2018-07-05T06:08:54.594Z,21.60
2018-07-05T06:11:36.508Z,21.80
2018-07-05T06:14:16.753Z,21.80
2018-07-05T06:16:57.820Z,22.00
2018-07-05T06:19:38.314Z,22.00
2018-07-05T06:22:18.885Z,22.10
2018-07-05T06:24:59.223Z,22.20
2018-07-05T06:27:39.611Z,22.30
2018-07-05T06:30:21.104Z,22.40
2018-07-05T06:33:01.450Z,22.50
2018-07-05T06:35:43.726Z,22.50
2018-07-05T06:38:24.830Z,22.60
2018-07-05T06:41:07.980Z,22.70
2018-07-05T06:43:49.428Z,22.80
2018-07-05T06:46:31.988Z,22.90
2018-07-05T06:49:12.352Z,23.00
2018-07-05T06:51:52.881Z,23.10
2018-07-05T06:54:33.841Z,23.10
2018-07-05T06:57:14.210Z,23.20
2018-07-05T06:59:55.364Z,23.30
2018-07-05T07:02:36.052Z,23.40
2018-07-05T07:05:18.960Z,23.50
2018-07-05T07:07:59.374Z,23.60
2018-07-05T07:10:40.308Z,23.60
2018-07-05T07:13:20.613Z,23.80
2018-07-05T07:18:35.438Z,23.90
2018-07-05T07:21:15.713Z,24.00
2018-07-05T07:23:57.269Z,24.20
2018-07-05T07:26:38.121Z,24.30
2018-07-05T07:29:18.744Z,24.50
2018-07-05T07:31:59.383Z,24.60
2018-07-05T07:34:41.108Z,24.70
2018-07-05T07:37:21.635Z,24.80
2018-07-05T07:40:02.136Z,24.90
2018-07-05T07:42:30.808Z,25.00
2018-07-05T07:44:59.053Z,25.10
2018-07-05T07:47:27.133Z,25.20
2018-07-05T07:49:55.273Z,25.30
2018-07-05T07:52:23.332Z,25.30
2018-07-05T07:54:51.392Z,25.40
2018-07-05T07:57:21.434Z,25.60
2018-07-05T07:59:50.208Z,25.60
2018-07-05T08:02:18.321Z,25.70
2018-07-05T08:04:49.814Z,25.70
2018-07-05T08:07:18.974Z,25.80
2018-07-05T08:09:47.161Z,25.90
2018-07-05T08:12:15.640Z,26.00
2018-07-05T08:14:43.768Z,26.00
2018-07-05T08:17:11.846Z,26.00
2018-07-05T08:19:39.950Z,26.10
2018-07-05T08:22:08.037Z,26.30
2018-07-05T08:24:38.167Z,26.40
2018-07-05T08:27:06.545Z,26.50
2018-07-05T08:29:34.600Z,26.50
2018-07-05T08:32:02.652Z,26.50
2018-07-05T08:34:30.736Z,26.50
2018-07-05T08:36:58.873Z,26.50
2018-07-05T08:39:26.941Z,26.50
2018-07-05T08:41:55.047Z,26.50
2018-07-05T08:44:23.114Z,26.50
2018-07-05T08:46:51.164Z,26.50
2018-07-05T08:49:19.299Z,26.60
2018-07-05T08:51:47.364Z,26.80
2018-07-05T08:54:15.465Z,26.90
2018-07-05T08:56:43.561Z,26.90
2018-07-05T08:59:11.629Z,27.00
2018-07-05T09:01:39.700Z,27.20
2018-07-05T09:04:07.800Z,27.20
2018-07-05T09:06:35.878Z,27.30
2018-07-05T09:09:05.178Z,27.40
2018-07-05T09:11:33.673Z,27.50
2018-07-05T09:14:01.805Z,27.60
2018-07-05T09:16:29.864Z,27.70
2018-07-05T09:18:59.177Z,27.70
2018-07-05T09:21:27.245Z,27.80
2018-07-05T09:23:55.317Z,27.80
2018-07-05T09:28:51.643Z,27.90
2018-07-05T09:31:19.755Z,28.00
2018-07-05T09:33:48.100Z,28.00
2018-07-05T09:36:16.194Z,28.00
2018-07-05T09:38:44.357Z,27.90
2018-07-05T09:41:12.441Z,27.80
2018-07-05T09:43:40.800Z,27.80
2018-07-05T09:46:09.541Z,27.80
2018-07-05T09:48:37.685Z,27.80
2018-07-05T09:51:05.821Z,27.80
2018-07-05T09:53:33.910Z,27.80
2018-07-05T09:56:02.341Z,27.70
2018-07-05T09:58:30.485Z,27.80
2018-07-05T10:00:59.282Z,28.00
2018-07-05T10:03:28.281Z,28.10
2018-07-05T10:05:56.421Z,28.20
2018-07-05T10:08:24.709Z,28.30
2018-07-05T10:10:52.998Z,28.50
2018-07-05T10:13:21.739Z,28.60
2018-07-05T10:15:51.283Z,28.70
2018-07-05T10:18:22.976Z,28.80
2018-07-05T10:20:54.382Z,28.90
2018-07-05T10:25:57.166Z,28.90
2018-07-05T10:28:27.786Z,28.90
2018-07-05T10:31:08.749Z,29.00
2018-07-05T10:33:52.388Z,29.10
2018-07-05T10:36:23.934Z,29.20
2018-07-05T10:38:53.717Z,29.20
2018-07-05T10:41:35.117Z,29.30
2018-07-05T10:44:15.471Z,29.30
2018-07-05T10:46:56.857Z,29.30
2018-07-05T10:49:37.320Z,29.40
2018-07-05T10:52:17.799Z,29.50
2018-07-05T10:54:58.109Z,29.60
2018-07-05T10:57:38.560Z,29.70
2018-07-05T11:00:18.958Z,29.80
2018-07-05T11:02:59.437Z,29.90
2018-07-05T11:05:39.965Z,30.00
2018-07-05T11:10:55.033Z,30.30
2018-07-05T11:13:35.662Z,30.60
2018-07-05T11:16:15.953Z,30.80
2018-07-05T11:18:56.584Z,31.00
2018-07-05T11:21:36.909Z,30.80
2018-07-05T11:24:17.596Z,30.50
2018-07-05T11:26:57.917Z,30.50
2018-07-05T11:32:12.633Z,31.20
2018-07-05T11:34:53.305Z,31.80
2018-07-05T11:37:33.766Z,32.60
2018-07-05T11:40:14.602Z,33.30
2018-07-05T11:42:54.945Z,33.90
2018-07-05T11:45:35.237Z,34.40
2018-07-05T11:48:16.064Z,35.20
2018-07-05T11:50:56.385Z,35.60
2018-07-05T11:53:36.668Z,35.80
2018-07-05T11:56:17.665Z,35.80
2018-07-05T11:58:58.115Z,36.00
2018-07-05T12:01:38.594Z,36.00
2018-07-05T12:04:19.264Z,36.20
2018-07-05T12:09:33.905Z,37.10
2018-07-05T12:12:14.380Z,37.40
2018-07-05T12:14:54.812Z,37.60
2018-07-05T12:17:35.124Z,37.30
2018-07-05T12:20:15.457Z,36.50
2018-07-05T12:25:30.019Z,34.80
2018-07-05T12:28:10.581Z,34.00
2018-07-05T12:30:51.193Z,33.30
2018-07-05T12:33:31.703Z,33.10
2018-07-05T12:36:12.034Z,33.00
2018-07-05T12:38:52.733Z,33.00
2018-07-05T12:41:33.181Z,33.00
2018-07-05T12:44:14.280Z,32.80
2018-07-05T12:46:54.612Z,32.60
2018-07-05T12:49:35.620Z,32.60
2018-07-05T12:52:16.125Z,32.60
2018-07-05T12:54:56.640Z,32.80
2018-07-05T12:57:37.399Z,32.90
2018-07-05T13:00:18.266Z,32.80
2018-07-05T13:02:58.534Z,33.00
2018-07-05T13:05:38.865Z,33.30
2018-07-05T13:08:19.245Z,32.90
2018-07-05T13:11:02.818Z,31.90
2018-07-05T13:13:43.129Z,31.10
2018-07-05T13:16:23.753Z,30.50
2018-07-05T13:19:04.064Z,29.80
2018-07-05T13:21:44.521Z,29.20
2018-07-05T13:24:24.845Z,28.90
2018-07-05T13:29:39.801Z,28.70
2018-07-05T13:32:20.419Z,28.90
2018-07-05T13:35:00.701Z,28.80
2018-07-05T13:37:41.168Z,28.70
2018-07-05T13:40:22.145Z,28.60
2018-07-05T13:43:02.557Z,28.50
2018-07-05T13:45:43.064Z,28.30
2018-07-05T13:48:23.836Z,28.40
2018-07-05T13:51:04.888Z,28.50
2018-07-05T13:53:45.392Z,28.30
2018-07-05T13:56:25.895Z,28.00
2018-07-05T13:59:06.579Z,27.80
2018-07-05T14:01:46.974Z,27.60
2018-07-05T14:04:27.847Z,27.40
2018-07-05T14:07:08.052Z,27.20
2018-07-05T14:09:48.429Z,27.10
2018-07-05T14:12:29.033Z,27.00
2018-07-05T14:15:09.425Z,27.00
2018-07-05T14:17:50.734Z,26.90
2018-07-05T14:20:35.835Z,26.80
2018-07-05T14:23:16.285Z,26.70
2018-07-05T14:25:56.828Z,26.70
2018-07-05T14:28:37.296Z,26.70
2018-07-05T14:31:17.912Z,26.60
2018-07-05T14:33:58.217Z,26.60
2018-07-05T14:36:39.219Z,26.60
2018-07-05T14:39:19.501Z,26.60
2018-07-05T14:41:59.969Z,26.50
2018-07-05T14:44:40.431Z,26.20
2018-07-05T14:47:20.920Z,26.20
2018-07-05T14:52:36.482Z,26.10
2018-07-05T14:55:16.835Z,26.10
2018-07-05T14:57:57.329Z,26.10
2018-07-05T15:00:37.508Z,26.00
2018-07-05T15:03:18.017Z,26.00
2018-07-05T15:05:58.384Z,25.80
2018-07-05T15:08:39.093Z,25.70
2018-07-05T15:11:19.493Z,25.80
2018-07-05T15:14:00.273Z,25.70
2018-07-05T15:16:40.497Z,25.60
2018-07-05T15:19:20.874Z,25.50
2018-07-05T15:22:01.335Z,25.50
2018-07-05T15:24:42.104Z,25.50
2018-07-05T15:27:22.464Z,25.50
2018-07-05T15:30:02.772Z,25.50
2018-07-05T15:32:43.290Z,25.40
2018-07-05T15:35:23.592Z,25.30
2018-07-05T15:38:04.021Z,25.30
2018-07-05T15:40:44.893Z,25.20
2018-07-05T15:43:25.560Z,25.10
2018-07-05T15:46:06.100Z,24.90
2018-07-05T15:48:46.741Z,24.80
2018-07-05T15:51:27.141Z,24.80
2018-07-05T15:54:07.473Z,24.60
2018-07-05T15:56:48.316Z,24.60
2018-07-05T15:59:29.104Z,24.60
2018-07-05T16:02:09.798Z,24.60
2018-07-05T16:04:50.715Z,24.60
2018-07-05T16:07:31.263Z,24.60
2018-07-05T16:10:11.903Z,24.60
2018-07-05T16:12:52.797Z,24.60
2018-07-05T16:15:33.448Z,24.60
2018-07-05T16:18:15.956Z,24.50
2018-07-05T16:20:57.516Z,24.40
2018-07-05T16:26:12.412Z,24.20
2018-07-05T16:28:53.169Z,24.10
2018-07-05T16:31:34.677Z,24.10
2018-07-05T16:34:15.363Z,24.10
2018-07-05T16:36:55.815Z,24.10
2018-07-05T16:39:36.386Z,24.20
2018-07-05T16:42:17.064Z,24.30
2018-07-05T16:44:58.505Z,24.20
2018-07-05T16:47:39.234Z,24.10
2018-07-05T16:50:20.103Z,24.00
2018-07-05T16:53:00.652Z,23.90
2018-07-05T16:55:41.393Z,23.90
2018-07-05T16:58:22.243Z,23.90
2018-07-05T17:03:37.445Z,23.80
2018-07-05T17:06:18.572Z,23.80
2018-07-05T17:08:59.075Z,23.90
2018-07-05T17:14:15.628Z,24.00
2018-07-05T17:16:56.531Z,24.00
2018-07-05T17:19:37.621Z,24.00
2018-07-05T17:22:18.281Z,23.90
2018-07-05T17:24:59.857Z,23.80
2018-07-05T17:27:41.649Z,23.80
2018-07-05T17:30:22.301Z,23.80
2018-07-05T17:33:04.485Z,23.70
2018-07-05T17:35:45.148Z,23.70
2018-07-05T17:38:25.865Z,23.70
2018-07-05T17:41:06.472Z,23.60
2018-07-05T17:46:25.750Z,23.50
2018-07-05T17:49:07.730Z,23.50
2018-07-05T17:51:48.452Z,23.50
2018-07-05T17:54:29.821Z,23.40
2018-07-05T17:57:10.460Z,23.40
2018-07-05T18:00:00.584Z,23.40
2018-07-05T18:02:41.333Z,23.40
2018-07-05T18:05:23.704Z,23.30
2018-07-05T18:08:07.785Z,23.30
2018-07-05T18:10:48.685Z,23.30
2018-07-05T18:13:29.212Z,23.30
2018-07-05T18:16:09.941Z,23.30
2018-07-05T18:18:50.577Z,23.30
2018-07-05T18:21:32.500Z,23.30
2018-07-05T18:24:12.800Z,23.20
2018-07-05T18:29:28.013Z,23.30
2018-07-05T18:32:09.610Z,23.30
2018-07-05T18:34:50.253Z,23.20
2018-07-05T18:40:06.520Z,23.10
2018-07-05T18:42:47.045Z,23.00
2018-07-05T18:45:27.378Z,23.00
2018-07-05T18:48:07.774Z,23.00
2018-07-05T18:50:48.413Z,23.00
2018-07-05T18:53:30.250Z,23.00
2018-07-05T18:56:11.921Z,23.00
2018-07-05T18:58:53.283Z,22.90
2018-07-05T19:01:34.408Z,22.80
2018-07-05T19:04:18.025Z,22.80
2018-07-05T19:09:36.058Z,22.90
2018-07-05T19:12:17.191Z,22.90
2018-07-05T19:14:57.829Z,22.80
2018-07-05T19:17:38.581Z,22.80
2018-07-05T19:20:19.153Z,22.70
2018-07-05T19:22:59.426Z,22.60
2018-07-05T19:28:34.795Z,22.70
2018-07-05T19:31:16.383Z,22.60
2018-07-05T19:33:58.955Z,22.50
2018-07-05T19:36:40.962Z,22.40
2018-07-05T19:39:23.763Z,22.40
2018-07-05T19:42:04.861Z,22.40
2018-07-05T19:44:47.005Z,22.40
2018-07-05T19:47:27.341Z,22.40
2018-07-05T19:50:08.529Z,22.40
2018-07-05T19:52:49.525Z,22.40
2018-07-05T19:55:30.907Z,22.30
2018-07-05T19:58:11.513Z,22.30
2018-07-05T20:00:53.013Z,22.30
2018-07-05T20:03:33.465Z,22.30
2018-07-05T20:08:48.655Z,22.30
2018-07-05T20:11:29.340Z,22.30
2018-07-05T20:14:09.844Z,22.30
2018-07-05T20:16:51.306Z,22.20
2018-07-05T20:19:32.536Z,22.30
2018-07-05T20:22:19.857Z,22.30
2018-07-05T20:25:00.520Z,22.30
2018-07-05T20:27:41.619Z,22.20
2018-07-05T20:30:22.122Z,22.30
2018-07-05T20:33:03.151Z,22.20
2018-07-05T20:35:45.876Z,22.10
2018-07-05T20:38:26.489Z,22.10
2018-07-05T20:41:07.229Z,22.00
2018-07-05T20:43:47.510Z,22.00
2018-07-05T20:46:29.048Z,22.00
2018-07-05T20:49:11.356Z,22.10
2018-07-05T20:51:53.556Z,22.10
2018-07-05T20:54:34.373Z,22.20
2018-07-05T20:57:14.895Z,22.00
2018-07-05T20:59:55.476Z,21.80
2018-07-05T21:02:36.100Z,21.80
2018-07-05T21:05:17.809Z,21.80
2018-07-05T21:07:58.117Z,21.80
2018-07-05T21:10:38.506Z,21.80
2018-07-05T21:13:22.236Z,21.80
2018-07-05T21:16:02.663Z,21.70
2018-07-05T21:18:42.936Z,21.70
2018-07-05T21:21:23.480Z,21.60
2018-07-05T21:24:03.820Z,21.60
2018-07-05T21:26:45.062Z,21.50
2018-07-05T21:29:25.429Z,21.50
2018-07-05T21:32:05.825Z,21.40
2018-07-05T21:34:46.384Z,21.40
2018-07-05T21:37:27.048Z,21.40
2018-07-05T21:40:07.538Z,21.40
2018-07-05T21:42:49.780Z,21.40
2018-07-05T21:45:29.996Z,21.30
2018-07-05T21:48:10.567Z,21.30
2018-07-05T21:50:50.989Z,21.30
2018-07-05T21:53:31.515Z,21.30
2018-07-05T21:56:12.055Z,21.30
2018-07-05T21:58:52.405Z,21.30
2018-07-05T22:01:32.860Z,21.20
2018-07-05T22:04:13.269Z,21.10
2018-07-05T22:06:53.608Z,21.10
2018-07-05T22:09:34.237Z,21.10
2018-07-05T22:12:14.681Z,21.00
2018-07-05T22:14:55.162Z,21.00
2018-07-05T22:17:41.017Z,21.00
2018-07-05T22:20:26.701Z,20.90
2018-07-05T22:23:12.465Z,21.00
2018-07-05T22:25:58.745Z,21.00
2018-07-05T22:28:44.562Z,21.00
2018-07-05T22:31:30.759Z,21.00
2018-07-05T22:34:11.645Z,21.00
2018-07-05T22:36:51.994Z,20.90
2018-07-05T22:39:32.740Z,20.90
2018-07-05T22:42:13.141Z,20.90
2018-07-05T22:44:53.557Z,20.90
2018-07-05T22:47:33.946Z,20.90
2018-07-05T22:50:14.217Z,20.90
2018-07-05T22:52:54.501Z,20.90
2018-07-05T22:55:35.178Z,20.90
2018-07-05T22:58:15.636Z,20.90
2018-07-05T23:00:56.043Z,20.90
2018-07-05T23:03:36.556Z,20.90
2018-07-05T23:06:17.040Z,20.90
2018-07-05T23:08:57.486Z,20.90
2018-07-05T23:11:37.952Z,20.80
2018-07-05T23:14:18.665Z,20.80
2018-07-05T23:16:59.550Z,20.80
2018-07-05T23:19:40.209Z,20.70
2018-07-05T23:22:20.466Z,20.70
2018-07-05T23:25:01.925Z,20.70
2018-07-05T23:27:42.293Z,20.70
2018-07-05T23:30:22.790Z,20.60
2018-07-05T23:33:03.046Z,20.60
2018-07-05T23:35:43.500Z,20.70
2018-07-05T23:38:23.936Z,20.70
2018-07-05T23:41:04.279Z,20.70
2018-07-05T23:43:45.053Z,20.70
2018-07-05T23:46:25.852Z,20.70
2018-07-05T23:49:06.032Z,20.70
2018-07-05T23:51:46.380Z,20.70
2018-07-05T23:54:26.692Z,20.70
2018-07-05T23:59:41.244Z,20.70
